Time;durP1;ratioP1;P1;durP2;ratioP2;P2;SDS_P1;SDS_P2;PMS_P1;PMS_P2;Temp;Humidity;BMP_temperature;BMP_pressure;BME280_temperature;BME280_humidity;BME280_pressure;Samples;Min_cycle;Max_cycle;Signal;HPM_P1;HPM_P2
2023/03/16 00:02:10;;;;;;;;;;;;;;;-1.95;77.15;100553.80;134092;1297;23149;-80
2023/03/16 00:05:15;;;;;;;;;;;;;;;-1.97;77.48;100567.41;134150;1297;22554;-80
2023/03/16 00:08:46;;;;;;;;;;;;;;;;;;;;;
2023/03/16 00:12:03;;;;;;;;;;;;;;;;;;;;;
2023/03/16 00:15:15;;;;;;;;;;;;;;;-2.14;77.17;100580.91;134059;1297;23227;-80
2023/03/16 00:18:30;;;;;;;;;;;;;;;;;;;;;
2023/03/16 00:21:33;;;;;;;;;;;;;;;-2.23;77.29;100587.73;134081;1298;22443;-80
2023/03/16 00:24:34;;;;;;;;;;;;;;;-2.28;77.05;100592.30;134116;1297;22435;-80
2023/03/16 00:27:50;;;;;;;;;;;;;;;-2.32;77.52;100585.74;134123;1297;22480;-80
2023/03/16 00:31:19;;;;;;;;;;;;;;;-2.32;77.60;100591.27;134113;1297;22452;-80
2023/03/16 00:34:40;;;;;;;;;;;;;;;-2.33;77.32;100593.21;134133;1297;23199;-80
2023/03/16 00:38:01;;;;;;;;;;;;;;;-2.35;77.41;100589.51;134062;1297;23192;-80
2023/03/16 00:41:05;;;;;;;;;;;;;;;-2.36;77.23;100589.58;134122;1297;23283;-80
2023/03/16 00:44:08;;;;;;;;;;;;;;;-2.35;77.56;100593.31;134118;1297;23182;-80
2023/03/16 00:47:22;;;;;;;;;;;;;;;-2.33;77.59;100593.75;134116;1297;22507;-80
2023/03/16 00:50:22;;;;;;;;;;;;;;;-2.35;77.29;100599.05;134132;1298;22412;-80
2023/03/16 00:53:28;;;;;;;;;;;;;;;-2.37;77.84;100601.38;134142;1297;22452;-80
2023/03/16 00:56:29;;;;;;;;;;;;;;;-2.34;78.04;100605.57;133878;1300;22448;-81
2023/03/16 00:59:30;;;;;;;;;;;;;;;-2.28;78.27;100607.58;134108;1297;22465;-80
2023/03/16 01:02:31;;;;;;;;;;;;;;;-2.24;78.13;100606.85;134112;1297;22507;-80
2023/03/16 01:05:50;;;;;;;;;;;;;;;-2.23;78.37;100610.95;134110;1288;22741;-80
2023/03/16 01:09:04;;;;;;;;;;;;;;;;;;;;;
2023/03/16 01:12:32;;;;;;;;;;;;;;;-2.24;78.22;100615.36;134104;1297;22470;-81
2023/03/16 01:15:33;;;;;;;;;;;;;;;-2.22;78.24;100610.77;134105;1297;22468;-80
2023/03/16 01:18:34;;;;;;;;;;;;;;;-2.23;78.34;100610.64;134124;1297;22448;-80
2023/03/16 01:21:38;;;;;;;;;;;;;;;-2.23;78.15;100615.31;133912;1298;23192;-80
2023/03/16 01:24:46;;;;;;;;;;;;;;;-2.26;78.30;100615.75;134056;1298;23376;-80
2023/03/16 01:27:47;;;;;;;;;;;;;;;-2.27;77.93;100628.31;133845;1297;23105;-80
2023/03/16 01:30:50;;;;;;;;;;;;;;;-2.29;78.04;100627.35;133949;1300;22429;-80
2023/03/16 01:33:52;;;;;;;;;;;;;;;-2.32;78.00;100634.77;133992;1298;22478;-80
2023/03/16 01:37:16;;;;;;;;;;;;;;;-2.36;77.99;100630.97;134030;1300;23248;-83
2023/03/16 01:40:31;;;;;;;;;;;;;;;-2.38;78.10;100630.20;133905;1297;23119;-83
2023/03/16 01:43:33;;;;;;;;;;;;;;;-2.40;78.30;100636.03;134020;1298;22839;-83
2023/03/16 01:46:34;;;;;;;;;;;;;;;-2.42;78.17;100638.38;133931;1298;22419;-83
2023/03/16 01:49:36;;;;;;;;;;;;;;;-2.42;78.55;100639.77;133924;1300;23225;-83
2023/03/16 01:52:40;;;;;;;;;;;;;;;-2.42;78.58;100642.38;134133;1297;22484;-82
2023/03/16 01:55:45;;;;;;;;;;;;;;;-2.44;78.73;100643.65;133881;1298;22508;-83
2023/03/16 01:58:53;;;;;;;;;;;;;;;-2.45;78.94;100645.09;134113;1298;22419;-83
2023/03/16 02:01:57;;;;;;;;;;;;;;;-2.49;78.74;100648.73;134144;1297;22458;-82
2023/03/16 02:05:04;;;;;;;;;;;;;;;-2.51;78.97;100652.63;133907;1301;22452;-82
2023/03/16 02:11:58;;;;;;;;;;;;;;;;;;;;;
2023/03/16 02:15:16;;;;;;;;;;;;;;;-2.41;79.25;100658.77;134021;1298;22487;-83
2023/03/16 02:18:58;;;;;;;;;;;;;;;-2.43;79.16;100659.05;133939;1300;22458;-83
2023/03/16 02:22:02;;;;;;;;;;;;;;;-2.45;79.26;100660.67;133908;1297;22452;-83
2023/03/16 02:25:06;;;;;;;;;;;;;;;-2.47;79.36;100660.64;134035;1300;22447;-83
2023/03/16 02:29:13;;;;;;;;;;;;;;;-2.46;79.38;100664.04;133918;1297;23539;-83
2023/03/16 02:32:04;;;;;;;;;;;;;;;-2.49;79.06;100668.16;133853;1297;296201;-83
2023/03/16 02:35:11;;;;;;;;;;;;;;;-2.51;79.49;100667.85;134031;1297;22472;-83
2023/03/16 02:43:01;;;;;;;;;;;;;;;-2.47;79.96;100673.27;134038;1298;25250;-82
2023/03/16 02:46:06;;;;;;;;;;;;;;;-2.45;80.01;100675.41;133900;1298;22499;-83
2023/03/16 02:49:18;;;;;;;;;;;;;;;-2.43;80.09;100676.73;133921;1300;23254;-83
2023/03/16 02:52:52;;;;;;;;;;;;;;;;;;;;;
2023/03/16 02:55:52;;;;;;;;;;;;;;;-2.42;80.19;100679.96;133916;1298;22448;-83
2023/03/16 02:58:56;;;;;;;;;;;;;;;-2.43;80.34;100676.19;134137;1297;22457;-82
2023/03/16 03:02:13;;;;;;;;;;;;;;;;;;;;;
2023/03/16 03:05:36;;;;;;;;;;;;;;;-2.43;80.48;100678.09;134163;1297;23078;-83
2023/03/16 03:09:07;;;;;;;;;;;;;;;;;;;;;
2023/03/16 03:12:26;;;;;;;;;;;;;;;-2.41;80.48;100688.23;134139;1297;24042;-82
2023/03/16 03:15:28;;;;;;;;;;;;;;;-2.43;80.48;100691.09;134119;1297;22442;-83
2023/03/16 03:18:39;;;;;;;;;;;;;;;-2.44;80.45;100692.71;134031;1298;22465;-83
2023/03/16 03:21:40;;;;;;;;;;;;;;;-2.47;80.60;100700.63;133946;1297;22560;-83
2023/03/16 03:25:47;;;;;;;;;;;;;;;-2.49;80.52;100699.13;134012;1298;22504;-83
2023/03/16 03:28:34;;;;;;;;;;;;;;;-2.50;80.64;100699.55;134038;1297;22473;-83
2023/03/16 03:31:37;;;;;;;;;;;;;;;-2.50;80.44;100700.26;134110;1305;22439;-83
2023/03/16 03:35:20;;;;;;;;;;;;;;;-2.53;80.65;100702.42;134056;1298;22474;-83
2023/03/16 03:39:04;;;;;;;;;;;;;;;-2.53;80.60;100706.10;133931;1297;22441;-83
2023/03/16 03:42:06;;;;;;;;;;;;;;;-2.54;80.64;100710.81;134027;1298;22656;-83
2023/03/16 03:45:38;;;;;;;;;;;;;;;-2.55;80.76;100712.23;134131;1298;23135;-83
2023/03/16 03:48:38;;;;;;;;;;;;;;;-2.54;80.86;100710.64;134039;1304;23212;-82
2023/03/16 03:51:53;;;;;;;;;;;;;;;;;;;;;
2023/03/16 03:55:19;;;;;;;;;;;;;;;-2.56;80.70;100718.34;133879;1297;22636;-80
2023/03/16 03:59:10;;;;;;;;;;;;;;;;;;;;;
2023/03/16 04:02:19;;;;;;;;;;;;;;;-2.63;80.93;100727.14;134104;1298;22496;-81
2023/03/16 04:05:47;;;;;;;;;;;;;;;-2.62;80.98;100727.12;134019;1298;22637;-81
2023/03/16 04:09:01;;;;;;;;;;;;;;;-2.61;81.31;100726.56;134142;1298;23860;-81
2023/03/16 04:12:04;;;;;;;;;;;;;;;-2.60;81.21;100723.40;133891;1299;22543;-81
2023/03/16 04:15:42;;;;;;;;;;;;;;;;;;;;;
2023/03/16 04:19:22;;;;;;;;;;;;;;;-2.63;81.33;100727.51;133946;1302;22476;-81
2023/03/16 04:26:35;;;;;;;;;;;;;;;;;;;;;
2023/03/16 04:29:42;;;;;;;;;;;;;;;-2.63;81.35;100736.73;133928;1298;22442;-81
2023/03/16 04:32:52;;;;;;;;;;;;;;;-2.63;81.43;100739.12;133878;1300;22491;-81
2023/03/16 04:36:03;;;;;;;;;;;;;;;-2.66;81.28;100739.21;134045;1297;23169;-81
2023/03/16 04:39:32;;;;;;;;;;;;;;;-2.67;81.48;100739.80;134092;1298;22453;-81
2023/03/16 04:42:40;;;;;;;;;;;;;;;-2.66;81.46;100741.84;133968;1299;23356;-81
2023/03/16 04:45:41;;;;;;;;;;;;;;;-2.65;81.50;100746.83;134040;1301;22451;-81
2023/03/16 04:48:43;;;;;;;;;;;;;;;-2.67;81.39;100746.73;133925;1300;23246;-81
2023/03/16 04:51:46;;;;;;;;;;;;;;;-2.68;81.39;100752.86;133922;1297;22430;-81
2023/03/16 04:55:21;;;;;;;;;;;;;;;-2.67;81.50;100750.40;134015;1298;23306;-81
2023/03/16 05:02:33;;;;;;;;;;;;;;;-2.65;81.36;100760.51;133960;1298;22469;-82
2023/03/16 05:05:41;;;;;;;;;;;;;;;-2.65;81.30;100760.83;133900;1300;22552;-82
2023/03/16 05:08:55;;;;;;;;;;;;;;;-2.65;81.44;100765.54;134129;1298;22514;-81
2023/03/16 05:12:06;;;;;;;;;;;;;;;;;;;;;
2023/03/16 05:15:14;;;;;;;;;;;;;;;-2.62;81.58;100770.24;134040;1298;22540;-80
2023/03/16 05:18:18;;;;;;;;;;;;;;;-2.58;81.72;100774.55;133926;1297;23319;-80
2023/03/16 05:21:47;;;;;;;;;;;;;;;-2.51;81.94;100776.03;134106;1297;22469;-80
2023/03/16 05:25:19;;;;;;;;;;;;;;;;;;;;;
2023/03/16 05:28:25;;;;;;;;;;;;;;;-2.14;82.13;100781.95;133835;1298;22470;-78
2023/03/16 05:31:31;;;;;;;;;;;;;;;-1.92;82.25;100779.08;133891;1300;22455;-81
2023/03/16 05:34:43;;;;;;;;;;;;;;;-1.66;82.09;100777.31;133896;1297;22456;-82
2023/03/16 05:37:44;;;;;;;;;;;;;;;-1.36;81.96;100777.29;133860;1299;22478;-81
2023/03/16 05:41:20;;;;;;;;;;;;;;;-0.99;82.18;100778.94;133940;1300;22499;-86
2023/03/16 05:44:39;;;;;;;;;;;;;;;-0.50;81.62;100778.34;134017;1297;22426;-84
2023/03/16 05:47:46;;;;;;;;;;;;;;;-0.08;81.49;100778.88;134162;1298;22483;-80
2023/03/16 05:50:47;;;;;;;;;;;;;;;0.39;81.34;100779.64;134118;1297;22516;-80
2023/03/16 05:54:12;;;;;;;;;;;;;;;0.83;81.04;100779.39;133949;1299;23221;-81
2023/03/16 05:57:17;;;;;;;;;;;;;;;1.27;80.45;100787.98;134042;1300;22489;-83
2023/03/16 06:00:19;;;;;;;;;;;;;;;1.69;80.14;100787.73;134096;1297;22461;-85
2023/03/16 06:03:27;;;;;;;;;;;;;;;2.06;79.62;100789.63;133892;1298;22474;-72
2023/03/16 06:06:48;;;;;;;;;;;;;;;2.37;78.81;100786.12;133912;1298;22447;-80
2023/03/16 06:10:19;;;;;;;;;;;;;;;2.81;79.06;100792.16;133894;1298;22495;-82
2023/03/16 06:13:22;;;;;;;;;;;;;;;3.22;78.25;100797.54;133890;1300;23319;-81
2023/03/16 06:16:25;;;;;;;;;;;;;;;3.58;77.96;100797.32;134105;1297;22444;-82
2023/03/16 06:19:26;;;;;;;;;;;;;;;4.04;77.45;100797.82;133963;1304;22480;-82
2023/03/16 06:22:31;;;;;;;;;;;;;;;4.41;77.13;100799.60;134034;1298;22555;-78
2023/03/16 06:25:41;;;;;;;;;;;;;;;4.74;75.72;100803.52;134115;1298;22478;-81
2023/03/16 06:28:43;;;;;;;;;;;;;;;4.78;74.88;100801.12;134005;1298;22425;-79
2023/03/16 06:31:51;;;;;;;;;;;;;;;4.75;73.93;100810.61;134099;1289;22467;-80
2023/03/16 06:35:00;;;;;;;;;;;;;;;4.97;74.37;100809.83;134120;1298;24043;-79
2023/03/16 06:38:25;;;;;;;;;;;;;;;5.02;72.89;100812.70;133864;1298;23175;-80
2023/03/16 06:41:46;;;;;;;;;;;;;;;5.06;72.76;100812.38;133943;1298;22466;-80
2023/03/16 06:44:50;;;;;;;;;;;;;;;5.20;72.80;100819.23;133935;1300;22478;-79
2023/03/16 06:47:54;;;;;;;;;;;;;;;5.26;72.07;100820.52;133948;1301;23196;-80
2023/03/16 06:50:58;;;;;;;;;;;;;;;5.32;71.80;100823.75;134046;1302;22414;-81
2023/03/16 06:54:24;;;;;;;;;;;;;;;5.39;71.88;100827.58;134052;1298;22497;-84
2023/03/16 06:57:26;;;;;;;;;;;;;;;5.56;71.26;100832.96;134019;1297;22570;-82
2023/03/16 07:00:27;;;;;;;;;;;;;;;5.56;70.05;100836.53;134104;1301;22475;-83
2023/03/16 07:03:27;;;;;;;;;;;;;;;5.56;70.62;100837.34;133966;1302;23245;-82
2023/03/16 07:06:42;;;;;;;;;;;;;;;5.73;70.54;100833.21;133926;1301;22433;-82
2023/03/16 07:09:42;;;;;;;;;;;;;;;5.92;70.38;100836.90;133997;1298;22460;-81
2023/03/16 07:13:13;;;;;;;;;;;;;;;;;;;;;
2023/03/16 07:16:14;;;;;;;;;;;;;;;6.15;69.60;100837.38;133871;1303;22462;-81
2023/03/16 07:19:15;;;;;;;;;;;;;;;6.27;68.67;100843.14;134037;1299;22426;-81
2023/03/16 07:22:16;;;;;;;;;;;;;;;6.29;68.04;100844.91;134077;1297;22462;-82
2023/03/16 07:25:20;;;;;;;;;;;;;;;6.32;68.17;100849.40;133992;1299;22467;-82
2023/03/16 07:28:35;;;;;;;;;;;;;;;6.37;67.69;100849.00;133933;1299;23322;-81
2023/03/16 07:31:39;;;;;;;;;;;;;;;6.50;67.76;100848.67;134007;1298;22508;-82
2023/03/16 07:35:03;;;;;;;;;;;;;;;6.73;67.92;100849.15;133896;1304;23190;-81
2023/03/16 07:38:05;;;;;;;;;;;;;;;6.95;67.60;100847.14;133890;1298;22468;-81
2023/03/16 07:41:26;;;;;;;;;;;;;;;7.01;66.56;100845.77;134095;1298;22467;-82
2023/03/16 07:44:28;;;;;;;;;;;;;;;6.94;66.29;100849.84;134110;1299;22466;-82
2023/03/16 07:47:30;;;;;;;;;;;;;;;6.85;65.85;100856.23;133833;1301;22466;-82
2023/03/16 07:50:32;;;;;;;;;;;;;;;6.94;66.10;100857.64;133906;1298;23159;-82
2023/03/16 07:53:43;;;;;;;;;;;;;;;7.04;65.75;100858.93;133876;1300;22518;-81
2023/03/16 07:56:52;;;;;;;;;;;;;;;7.15;66.02;100861.00;133862;1298;22437;-81
2023/03/16 08:00:23;;;;;;;;;;;;;;;7.42;65.40;100853.67;134101;1303;23209;-81
2023/03/16 08:03:24;;;;;;;;;;;;;;;7.59;65.29;100853.62;134099;1299;22408;-81
2023/03/16 08:06:26;;;;;;;;;;;;;;;7.68;64.59;100858.54;134005;1299;22508;-81
2023/03/16 08:09:27;;;;;;;;;;;;;;;7.73;64.41;100863.02;134073;1299;22428;-81
2023/03/16 08:16:02;;;;;;;;;;;;;;;8.16;64.32;100864.23;134176;1297;23537;-81
2023/03/16 08:19:33;;;;;;;;;;;;;;;8.35;63.18;100872.86;133922;1297;22463;-81
2023/03/16 08:22:37;;;;;;;;;;;;;;;8.37;63.44;100876.21;133906;1298;22454;-81
2023/03/16 08:25:53;;;;;;;;;;;;;;;8.51;62.88;100875.48;134107;1297;23210;-82
2023/03/16 08:28:55;;;;;;;;;;;;;;;8.62;62.84;100878.23;133944;1300;22532;-82
2023/03/16 08:31:59;;;;;;;;;;;;;;;8.76;62.37;100875.58;133892;1300;23388;-82
2023/03/16 08:35:05;;;;;;;;;;;;;;;8.90;61.86;100877.17;133917;1303;22538;-81
2023/03/16 08:38:58;;;;;;;;;;;;;;;;;;;;;
2023/03/16 08:42:22;;;;;;;;;;;;;;;;;;;;;
2023/03/16 08:45:36;;;;;;;;;;;;;;;9.34;60.97;100883.40;133887;1301;23115;-82
2023/03/16 08:48:49;;;;;;;;;;;;;;;9.45;60.62;100887.69;134090;1298;22445;-82
2023/03/16 08:51:50;;;;;;;;;;;;;;;9.58;60.64;100885.08;134010;1298;22431;-82
2023/03/16 08:54:50;;;;;;;;;;;;;;;9.72;59.82;100885.92;134107;1298;22553;-82
2023/03/16 08:58:01;;;;;;;;;;;;;;;;;;;;;
2023/03/16 09:01:04;;;;;;;;;;;;;;;9.99;59.20;100893.02;134080;1297;22473;-82
2023/03/16 09:04:04;;;;;;;;;;;;;;;10.09;58.90;100893.67;134068;1302;22475;-86
2023/03/16 09:07:05;;;;;;;;;;;;;;;10.19;58.97;100892.83;134036;1299;22462;-77
2023/03/16 09:10:06;;;;;;;;;;;;;;;10.49;58.95;100894.31;134099;1290;22465;-77
2023/03/16 09:13:07;;;;;;;;;;;;;;;10.65;57.76;100896.57;133902;1298;22454;-77
2023/03/16 09:16:08;;;;;;;;;;;;;;;10.83;57.43;100895.44;133963;1301;22450;-78
2023/03/16 09:19:10;;;;;;;;;;;;;;;10.87;56.46;100894.86;134018;1304;23235;-78
2023/03/16 09:22:11;;;;;;;;;;;;;;;10.83;56.22;100897.52;134128;1298;22447;-77
2023/03/16 09:25:11;;;;;;;;;;;;;;;10.88;55.44;100897.73;134129;1298;22461;-75
2023/03/16 09:28:12;;;;;;;;;;;;;;;10.90;55.15;100894.55;134031;1301;22459;-76
2023/03/16 09:31:15;;;;;;;;;;;;;;;10.81;54.83;100893.46;134096;1298;22462;-75
2023/03/16 09:34:16;;;;;;;;;;;;;;;10.95;54.92;100890.02;134086;1298;22627;-76
2023/03/16 09:37:16;;;;;;;;;;;;;;;11.00;54.23;100888.59;134037;1298;22436;-80
2023/03/16 09:40:25;;;;;;;;;;;;;;;11.05;53.81;100889.95;134136;1297;22504;-75
2023/03/16 09:43:28;;;;;;;;;;;;;;;11.02;53.22;100885.21;134105;1297;22464;-81
2023/03/16 09:46:39;;;;;;;;;;;;;;;10.94;53.24;100886.40;134071;1298;23244;-83
2023/03/16 09:49:43;;;;;;;;;;;;;;;11.21;53.11;100886.72;134129;1297;22478;-86
2023/03/16 09:53:07;;;;;;;;;;;;;;;11.23;52.24;100884.79;134076;1297;22483;-85
2023/03/16 09:56:15;;;;;;;;;;;;;;;10.83;51.67;100893.13;134070;1298;22452;-87
2023/03/16 09:59:18;;;;;;;;;;;;;;;10.79;51.99;100894.91;133905;1288;22427;-86
2023/03/16 10:02:25;;;;;;;;;;;;;;;10.67;51.54;100895.03;134112;1291;22457;-86
2023/03/16 10:05:26;;;;;;;;;;;;;;;10.52;51.83;100898.42;134089;1297;22475;-86
2023/03/16 10:08:40;;;;;;;;;;;;;;;10.62;51.74;100890.14;134137;1298;23173;-86
2023/03/16 10:11:43;;;;;;;;;;;;;;;10.24;51.13;100891.30;134096;1297;22455;-85
2023/03/16 10:14:52;;;;;;;;;;;;;;;9.81;51.27;100895.35;134079;1297;22478;-85
2023/03/16 10:17:55;;;;;;;;;;;;;;;9.49;50.27;100897.10;134092;1298;23306;-85
2023/03/16 10:20:58;;;;;;;;;;;;;;;9.42;50.86;100895.48;134126;1297;23108;-84
2023/03/16 10:24:01;;;;;;;;;;;;;;;9.51;51.20;100896.68;133952;1299;22454;-85
2023/03/16 10:27:03;;;;;;;;;;;;;;;9.64;50.28;100894.28;134123;1298;22481;-85
2023/03/16 10:30:13;;;;;;;;;;;;;;;9.68;50.69;100893.07;134095;1297;22458;-84
2023/03/16 10:33:17;;;;;;;;;;;;;;;9.80;50.80;100895.45;134123;1297;22581;-84
2023/03/16 10:36:24;;;;;;;;;;;;;;;9.72;50.39;100896.39;133952;1300;22585;-83
2023/03/16 10:39:34;;;;;;;;;;;;;;;9.95;50.44;100892.09;134009;1297;22476;-82
2023/03/16 10:42:38;;;;;;;;;;;;;;;10.07;49.61;100886.78;134003;1298;22427;-84
2023/03/16 10:45:41;;;;;;;;;;;;;;;10.19;50.17;100890.55;134064;1297;22489;-83
2023/03/16 10:48:50;;;;;;;;;;;;;;;10.38;49.22;100886.14;134059;1298;22517;-84
2023/03/16 10:51:52;;;;;;;;;;;;;;;10.41;48.88;100887.10;133953;1298;22452;-83
2023/03/16 10:54:57;;;;;;;;;;;;;;;10.50;48.74;100889.39;133959;1297;22520;-83
2023/03/16 10:57:57;;;;;;;;;;;;;;;10.59;48.05;100883.79;134038;1298;23181;-83
2023/03/16 11:00:59;;;;;;;;;;;;;;;10.55;47.84;100879.36;134076;1297;23247;-84
2023/03/16 11:04:00;;;;;;;;;;;;;;;10.57;46.97;100880.39;133850;1297;23322;-82
2023/03/16 11:07:08;;;;;;;;;;;;;;;10.53;46.97;100887.85;134106;1297;22459;-85
2023/03/16 11:10:23;;;;;;;;;;;;;;;10.39;47.07;100883.45;134001;1298;23530;-83
2023/03/16 11:13:26;;;;;;;;;;;;;;;10.52;47.04;100879.33;134059;1297;22463;-75
2023/03/16 11:16:30;;;;;;;;;;;;;;;10.69;47.00;100880.13;133759;1297;23213;-82
2023/03/16 11:19:46;;;;;;;;;;;;;;;10.84;46.96;100880.63;134015;1298;23202;-78
2023/03/16 11:22:47;;;;;;;;;;;;;;;11.06;46.44;100885.06;133885;1300;22626;-77
2023/03/16 11:25:50;;;;;;;;;;;;;;;10.95;46.24;100883.06;134000;1297;22443;-78
2023/03/16 11:29:01;;;;;;;;;;;;;;;10.47;46.07;100882.44;134095;1297;23713;-80
2023/03/16 11:32:09;;;;;;;;;;;;;;;10.06;46.34;100877.65;134099;1297;22453;-78
2023/03/16 11:35:18;;;;;;;;;;;;;;;9.77;46.80;100880.05;134039;1297;23220;-78
2023/03/16 11:38:18;;;;;;;;;;;;;;;9.30;46.79;100884.70;134073;1297;22438;-78
2023/03/16 11:41:30;;;;;;;;;;;;;;;8.88;46.92;100885.88;134060;1297;23602;-78
2023/03/16 11:44:50;;;;;;;;;;;;;;;8.61;47.66;100882.73;133989;1297;22447;-78
2023/03/16 11:48:05;;;;;;;;;;;;;;;8.61;47.63;100876.90;134080;1297;22469;-78
2023/03/16 11:51:06;;;;;;;;;;;;;;;8.39;47.05;100873.44;134040;1304;22608;-78
2023/03/16 11:54:12;;;;;;;;;;;;;;;8.09;46.72;100869.60;134073;1297;22488;-78
2023/03/16 11:57:41;;;;;;;;;;;;;;;8.03;47.03;100869.82;134079;1297;22482;-78
2023/03/16 12:01:00;;;;;;;;;;;;;;;8.12;46.29;100863.02;134043;1298;22444;-78
2023/03/16 12:04:04;;;;;;;;;;;;;;;7.93;46.93;100866.42;134078;1297;22540;-79
2023/03/16 12:07:17;;;;;;;;;;;;;;;7.82;46.99;100863.46;134059;1297;23248;-82
2023/03/16 12:10:32;;;;;;;;;;;;;;;7.78;47.29;100863.16;134096;1298;22745;-81
2023/03/16 12:13:36;;;;;;;;;;;;;;;8.12;47.09;100860.96;133922;1297;22457;-82
2023/03/16 12:16:51;;;;;;;;;;;;;;;8.45;47.03;100858.40;134105;1297;22495;-82
2023/03/16 12:19:59;;;;;;;;;;;;;;;8.64;46.81;100853.97;133924;1298;23151;-82
2023/03/16 12:23:10;;;;;;;;;;;;;;;8.58;45.52;100849.70;133977;1298;22510;-81
2023/03/16 12:26:11;;;;;;;;;;;;;;;8.81;47.24;100850.66;134097;1297;22434;-82
2023/03/16 12:29:20;;;;;;;;;;;;;;;9.12;46.29;100850.28;134070;1297;22449;-82
2023/03/16 12:32:32;;;;;;;;;;;;;;;9.31;46.40;100844.64;134058;1297;22458;-83
2023/03/16 12:35:45;;;;;;;;;;;;;;;9.61;46.19;100841.43;134079;1297;22449;-82
2023/03/16 12:38:46;;;;;;;;;;;;;;;9.68;45.42;100844.66;133972;1301;22514;-83
2023/03/16 12:41:58;;;;;;;;;;;;;;;9.75;44.83;100843.07;134107;1297;22447;-82
2023/03/16 12:45:03;;;;;;;;;;;;;;;9.77;43.94;100842.56;134055;1297;22469;-82
2023/03/16 12:48:04;;;;;;;;;;;;;;;9.80;45.36;100846.48;133982;1298;22466;-82
2023/03/16 12:51:05;;;;;;;;;;;;;;;9.77;45.04;100845.91;134074;1297;22461;-81
2023/03/16 12:54:17;;;;;;;;;;;;;;;9.66;45.20;100843.09;134073;1297;22452;-82
2023/03/16 12:57:19;;;;;;;;;;;;;;;9.61;44.55;100838.09;134061;1297;22436;-82
2023/03/16 13:00:20;;;;;;;;;;;;;;;9.58;44.48;100835.36;134097;1298;22489;-82
2023/03/16 13:03:22;;;;;;;;;;;;;;;9.59;44.61;100837.39;134096;1297;22449;-82
2023/03/16 13:06:30;;;;;;;;;;;;;;;9.62;44.62;100843.60;134069;1297;22463;-82
2023/03/16 13:09:34;;;;;;;;;;;;;;;9.62;44.28;100845.13;134103;1297;22460;-82
2023/03/16 13:12:37;;;;;;;;;;;;;;;9.67;43.98;100839.60;134008;1298;22443;-82
2023/03/16 13:15:38;;;;;;;;;;;;;;;9.60;43.28;100841.09;134099;1298;23214;-83
2023/03/16 13:18:50;;;;;;;;;;;;;;;9.49;42.59;100843.23;134040;1297;23238;-82
2023/03/16 13:22:04;;;;;;;;;;;;;;;9.38;41.90;100843.01;134065;1297;22460;-82
2023/03/16 13:25:21;;;;;;;;;;;;;;;9.33;42.05;100848.39;133934;1297;22460;-82
2023/03/16 13:28:29;;;;;;;;;;;;;;;9.30;42.46;100849.42;134114;1297;23193;-82
2023/03/16 13:31:35;;;;;;;;;;;;;;;9.08;42.44;100847.36;134086;1298;24371;-82
2023/03/16 13:34:38;;;;;;;;;;;;;;;8.80;43.21;100846.65;134071;1297;22501;-82
2023/03/16 13:37:41;;;;;;;;;;;;;;;8.66;43.52;100847.38;134054;1297;22471;-82
2023/03/16 13:40:46;;;;;;;;;;;;;;;8.53;43.71;100846.42;134066;1297;22451;-82
2023/03/16 13:43:47;;;;;;;;;;;;;;;8.48;43.78;100845.23;133948;1298;22516;-82
2023/03/16 13:46:49;;;;;;;;;;;;;;;8.62;43.36;100844.05;134087;1297;22463;-82
2023/03/16 13:49:54;;;;;;;;;;;;;;;8.76;43.59;100842.64;134071;1297;22905;-82
2023/03/16 13:52:59;;;;;;;;;;;;;;;8.85;43.77;100844.48;133732;1298;22465;-82
2023/03/16 13:56:03;;;;;;;;;;;;;;;8.93;43.76;100846.02;134050;1297;22548;-82
2023/03/16 13:59:03;;;;;;;;;;;;;;;8.94;43.49;100843.44;134006;1297;22449;-82
2023/03/16 14:02:15;;;;;;;;;;;;;;;8.85;43.60;100845.14;134062;1297;22576;-82
2023/03/16 14:05:18;;;;;;;;;;;;;;;8.87;43.58;100840.73;134102;1297;23697;-82
2023/03/16 14:08:23;;;;;;;;;;;;;;;8.95;43.47;100835.05;133937;1297;22424;-82
2023/03/16 14:11:25;;;;;;;;;;;;;;;8.98;42.88;100835.35;134078;1297;22445;-82
2023/03/16 14:14:28;;;;;;;;;;;;;;;8.77;42.39;100833.74;134063;1297;22434;-82
2023/03/16 14:17:28;;;;;;;;;;;;;;;8.50;42.82;100836.14;134110;1297;22440;-82
2023/03/16 14:20:29;;;;;;;;;;;;;;;8.30;43.13;100838.03;134092;1297;23260;-82
2023/03/16 14:23:35;;;;;;;;;;;;;;;8.10;43.32;100839.22;133882;1300;22456;-82
2023/03/16 14:27:01;;;;;;;;;;;;;;;7.96;42.78;100832.54;134102;1297;22556;-82
2023/03/16 14:30:17;;;;;;;;;;;;;;;7.87;43.02;100828.36;133861;1297;283097;-82
2023/03/16 14:33:25;;;;;;;;;;;;;;;7.85;43.16;100820.03;133945;1299;24021;-82
2023/03/16 14:36:33;;;;;;;;;;;;;;;7.73;43.18;100821.85;134068;1297;22467;-82
2023/03/16 14:39:34;;;;;;;;;;;;;;;7.66;43.57;100824.33;134074;1297;22469;-82
2023/03/16 14:42:40;;;;;;;;;;;;;;;7.75;43.14;100819.37;133941;1297;22453;-82
2023/03/16 14:45:41;;;;;;;;;;;;;;;7.83;43.08;100821.69;133978;1297;22472;-82
2023/03/16 14:48:42;;;;;;;;;;;;;;;7.89;43.42;100819.15;134023;1290;22458;-82
2023/03/16 14:51:44;;;;;;;;;;;;;;;7.91;43.03;100815.98;134086;1298;22448;-82
2023/03/16 14:54:45;;;;;;;;;;;;;;;7.93;43.32;100815.66;134026;1298;22444;-82
2023/03/16 14:57:46;;;;;;;;;;;;;;;7.93;43.02;100813.91;134092;1297;22445;-82
2023/03/16 15:00:47;;;;;;;;;;;;;;;7.92;43.14;100812.91;134100;1297;22456;-82
2023/03/16 15:03:49;;;;;;;;;;;;;;;7.96;42.96;100812.92;134060;1297;22432;-82
2023/03/16 15:06:49;;;;;;;;;;;;;;;8.01;43.03;100816.20;134038;1298;23080;-82
2023/03/16 15:09:52;;;;;;;;;;;;;;;8.00;43.05;100809.58;134033;1297;23226;-82
2023/03/16 15:12:53;;;;;;;;;;;;;;;7.96;43.32;100810.31;134029;1298;22524;-82
2023/03/16 15:15:56;;;;;;;;;;;;;;;7.87;43.44;100817.95;133882;1298;22478;-82
2023/03/16 15:18:59;;;;;;;;;;;;;;;7.67;42.56;100815.10;134117;1297;22462;-82
2023/03/16 15:22:02;;;;;;;;;;;;;;;7.52;43.53;100816.20;134090;1297;22444;-82
2023/03/16 15:25:22;;;;;;;;;;;;;;;7.48;43.39;100816.71;134133;1297;22460;-82
2023/03/16 15:28:23;;;;;;;;;;;;;;;7.34;43.27;100813.42;134105;1297;23161;-82
2023/03/16 15:31:24;;;;;;;;;;;;;;;7.32;43.49;100813.68;133914;1297;23286;-81
2023/03/16 15:34:27;;;;;;;;;;;;;;;7.30;43.47;100809.65;134113;1294;22471;-82
2023/03/16 15:37:31;;;;;;;;;;;;;;;7.26;43.58;100814.82;134124;1297;22510;-82
2023/03/16 15:40:35;;;;;;;;;;;;;;;7.28;43.88;100816.11;134112;1302;22456;-82
2023/03/16 15:43:36;;;;;;;;;;;;;;;7.32;44.08;100810.80;133911;1300;22443;-82
2023/03/16 15:46:36;;;;;;;;;;;;;;;7.34;44.19;100813.70;133896;1298;22450;-82
2023/03/16 15:49:37;;;;;;;;;;;;;;;7.30;43.84;100815.71;133959;1297;23167;-82
2023/03/16 15:52:40;;;;;;;;;;;;;;;7.24;43.79;100824.52;134040;1297;22466;-82
2023/03/16 15:55:42;;;;;;;;;;;;;;;7.14;43.72;100824.48;133906;1305;22497;-81
2023/03/16 15:58:44;;;;;;;;;;;;;;;7.04;43.51;100827.80;134086;1298;22436;-79
2023/03/16 16:01:46;;;;;;;;;;;;;;;6.98;43.76;100828.63;134109;1298;22447;-86
2023/03/16 16:04:47;;;;;;;;;;;;;;;6.95;44.27;100827.64;134006;1298;22454;-83
2023/03/16 16:07:48;;;;;;;;;;;;;;;6.93;44.42;100828.50;133931;1296;22597;-81
2023/03/16 16:10:49;;;;;;;;;;;;;;;6.88;44.23;100825.05;134097;1298;22525;-84
2023/03/16 16:13:52;;;;;;;;;;;;;;;6.78;44.25;100824.98;134135;1297;22428;-82
2023/03/16 16:16:53;;;;;;;;;;;;;;;6.72;44.07;100825.84;134035;1300;22441;-75
2023/03/16 16:19:54;;;;;;;;;;;;;;;6.58;44.44;100836.28;134109;1297;22455;-76
2023/03/16 16:22:58;;;;;;;;;;;;;;;6.43;44.69;100834.28;134100;1297;22475;-75
2023/03/16 16:26:06;;;;;;;;;;;;;;;6.38;45.40;100837.21;134126;1297;23221;-77
2023/03/16 16:29:16;;;;;;;;;;;;;;;6.41;45.35;100832.02;133969;1300;23316;-79
2023/03/16 16:32:20;;;;;;;;;;;;;;;6.31;45.20;100841.91;134096;1297;22443;-74
2023/03/16 16:35:23;;;;;;;;;;;;;;;6.19;45.19;100840.73;134042;1297;22503;-73
2023/03/16 16:38:23;;;;;;;;;;;;;;;6.12;45.63;100843.27;134079;1297;23334;-73
2023/03/16 16:41:27;;;;;;;;;;;;;;;6.04;45.85;100843.55;134120;1297;22412;-74
2023/03/16 16:44:32;;;;;;;;;;;;;;;6.00;45.92;100843.84;134087;1297;22457;-73
2023/03/16 16:47:33;;;;;;;;;;;;;;;5.95;46.13;100841.39;134077;1297;23250;-74
2023/03/16 16:50:33;;;;;;;;;;;;;;;5.91;46.23;100845.95;134072;1305;22451;-74